Time;durP1;ratioP1;P1;durP2;ratioP2;P2;SDS_P1;SDS_P2;PMS_P1;PMS_P2;Temp;Humidity;BMP_temperature;BMP_pressure;BME280_temperature;BME280_humidity;BME280_pressure;Samples;Min_cycle;Max_cycle;Signal;HPM_P1;HPM_P2
2022/12/01 02:05:28;;;;;;;20.68;14.00;;;;;;;1.73;76.02;95308.55;1803559;77;26270;-48
2022/12/01 02:07:56;;;;;;;16.75;12.25;;;;;;;1.78;75.82;95312.30;1812735;78;21458;-49
2022/12/01 02:10:27;;;;;;;10.75;9.55;;;;;;;1.87;75.96;95314.88;1819409;78;21868;-49
2022/12/01 02:13:29;;;;;;;11.70;9.23;;;;;;;1.98;75.79;95308.16;1801798;78;20985;-47
2022/12/01 02:16:04;;;;;;;8.38;7.58;;;;;;;2.04;75.78;95307.98;1733620;80;21134;-47
2022/12/01 02:19:18;;;;;;;8.23;7.42;;;;;;;2.15;75.74;95311.55;1719240;80;20982;-48
2022/12/01 02:21:57;;;;;;;;;;;;;;;2.22;75.40;95309.66;1717632;81;21026;-48
2022/12/01 02:24:52;;;;;;;10.05;8.43;;;;;;;2.21;75.27;95312.17;1753411;80;21162;-48
2022/12/01 02:27:46;;;;;;;11.38;9.85;;;;;;;2.25;75.25;95317.59;1690375;83;21138;-48
2022/12/01 02:30:39;;;;;;;17.92;13.45;;;;;;;2.26;75.06;95309.66;1681677;83;21049;-48
2022/12/01 02:33:27;;;;;;;;;;;;;;;2.31;75.07;95302.52;1687276;85;21048;-49
2022/12/01 02:36:18;;;;;;;19.42;13.78;;;;;;;2.39;74.69;95308.97;1685722;83;20187;-49
2022/12/01 02:39:05;;;;;;;24.72;16.40;;;;;;;2.43;74.57;95313.83;1686770;83;22368;-49
2022/12/01 02:41:50;;;;;;;18.15;13.75;;;;;;;2.43;74.22;95310.31;1685355;83;21041;-47
2022/12/01 02:44:39;;;;;;;9.60;8.68;;;;;;;2.43;73.98;95307.03;1685912;83;20986;-48
2022/12/01 02:47:16;;;;;;;9.03;8.13;;;;;;;2.52;73.49;95309.41;1684524;83;21077;-49
2022/12/01 02:49:50;;;;;;;8.65;7.80;;;;;;;2.64;73.01;95300.89;1671444;83;21083;-48
2022/12/01 02:52:16;;;;;;;9.38;8.43;;;;;;;2.75;72.68;95307.15;1683238;84;21378;-48
2022/12/01 02:54:44;;;;;;;14.95;12.28;;;;;;;2.77;72.12;95308.90;1699352;83;21054;-49
2022/12/01 02:57:12;;;;;;;18.30;12.58;;;;;;;2.81;72.36;95306.96;1689322;84;21074;-46
2022/12/01 02:59:41;;;;;;;13.83;9.88;;;;;;;2.88;72.29;95308.36;1694489;83;21063;-47
2022/12/01 03:02:47;;;;;;;14.05;11.05;;;;;;;2.90;71.85;95307.39;1671364;84;21072;-49
2022/12/01 03:05:24;;;;;;;30.43;19.17;;;;;;;2.84;71.81;95304.86;1684825;83;21294;-50
2022/12/01 03:08:12;;;;;;;16.48;12.47;;;;;;;2.78;71.56;95304.45;1666805;84;21125;-49
2022/12/01 03:10:55;;;;;;;15.40;11.25;;;;;;;2.79;71.73;95305.22;1654853;85;21105;-49
2022/12/01 03:13:47;;;;;;;28.25;17.55;;;;;;;2.90;71.39;95301.96;1658089;85;21119;-48
2022/12/01 03:16:27;;;;;;;25.35;15.53;;;;;;;2.99;70.91;95305.07;1657185;85;21109;-47
2022/12/01 03:18:58;;;;;;;33.88;18.20;;;;;;;2.97;70.83;95306.04;1656328;85;21177;-47
2022/12/01 03:21:32;;;;;;;85.15;40.83;;;;;;;3.06;70.69;95298.31;1610293;88;21082;-48
2022/12/01 03:24:05;;;;;;;25.50;18.27;;;;;;;3.10;70.46;95307.24;1572991;88;21183;-48
2022/12/01 03:26:32;;;;;;;14.98;12.20;;;;;;;3.04;70.53;95308.79;1552647;89;21172;-47
2022/12/01 03:29:03;;;;;;;40.33;19.37;;;;;;;3.03;70.75;95308.59;1560394;89;21123;-48
2022/12/01 03:31:36;;;;;;;25.40;14.68;;;;;;;3.13;70.30;95304.53;1559500;90;21234;-48
2022/12/01 03:34:07;;;;;;;16.70;12.20;;;;;;;3.14;69.83;95312.09;1546798;89;21147;-48
2022/12/01 03:36:41;;;;;;;16.48;11.57;;;;;;;3.06;69.43;95310.54;1559232;89;21094;-47
2022/12/01 03:39:13;;;;;;;14.28;10.93;;;;;;;2.99;69.39;95311.30;1554049;90;22310;-48
2022/12/01 03:41:48;;;;;;;13.65;9.85;;;;;;;2.95;69.36;95306.44;1556285;90;21035;-47
2022/12/01 03:44:22;;;;;;;14.30;11.68;;;;;;;3.00;69.20;95312.06;1557062;91;21238;-48
2022/12/01 03:46:56;;;;;;;14.33;10.20;;;;;;;2.94;69.01;95300.81;1516314;93;21281;-49
2022/12/01 03:49:24;;;;;;;15.18;9.08;;;;;;;2.81;69.17;95300.97;1464555;96;21208;-49
2022/12/01 03:52:08;;;;;;;13.95;10.20;;;;;;;2.83;69.44;95308.74;1461637;95;21625;-49
2022/12/01 03:55:12;;;;;;;10.30;9.25;;;;;;;2.80;69.11;95306.20;1437353;98;21121;-49
2022/12/01 03:58:05;;;;;;;11.63;9.98;;;;;;;2.72;69.27;95302.48;1435846;97;21284;-48
2022/12/01 04:00:32;;;;;;;13.95;9.58;;;;;;;2.76;69.37;95299.20;1434036;98;21538;-49
2022/12/01 04:03:02;;;;;;;15.23;10.58;;;;;;;2.75;69.53;95303.87;1414913;99;21085;-48
2022/12/01 04:05:30;;;;;;;14.65;10.88;;;;;;;2.82;69.62;95304.44;1418931;100;21088;-48
2022/12/01 04:07:56;;;;;;;31.87;18.77;;;;;;;2.87;69.44;95309.52;1421377;100;21217;-47
2022/12/01 04:10:23;;;;;;;15.40;11.05;;;;;;;2.89;69.33;95301.77;1393104;100;21708;-48
2022/12/01 04:12:57;;;;;;;19.73;13.75;;;;;;;2.94;69.28;95300.81;1419402;98;21108;-48
2022/12/01 04:15:19;;;;;;;23.85;14.58;;;;;;;3.07;68.98;95303.34;1420423;100;21124;-48
2022/12/01 04:17:46;;;;;;;21.93;15.72;;;;;;;3.18;68.61;95295.99;1423234;97;21188;-48
2022/12/01 04:20:14;;;;;;;10.35;9.15;;;;;;;3.18;68.19;95292.48;1440619;97;21070;-48
2022/12/01 04:22:40;;;;;;;21.07;10.48;;;;;;;3.13;68.18;95292.88;1441308;98;21313;-48
2022/12/01 04:25:09;;;;;;;23.73;10.50;;;;;;;3.16;68.20;95290.73;1440454;99;21141;-48
2022/12/01 04:27:36;;;;;;;21.23;12.95;;;;;;;3.32;68.07;95289.79;1418666;99;21072;-48
2022/12/01 04:30:05;;;;;;;13.28;10.70;;;;;;;3.33;67.77;95292.13;1488276;91;21208;-49
2022/12/01 04:32:38;;;;;;;11.88;8.40;;;;;;;3.31;67.78;95296.39;1529657;93;21097;-49
2022/12/01 04:35:06;;;;;;;;;;;;;;;3.20;67.36;95299.10;1542195;88;21296;-47
2022/12/01 04:37:33;;;;;;;9.13;7.75;;;;;;;3.13;67.29;95295.59;1604284;87;20210;-49
2022/12/01 04:40:00;;;;;;;32.90;11.73;;;;;;;3.05;67.53;95296.16;1616623;86;21112;-49
2022/12/01 04:42:26;;;;;;;25.05;15.25;;;;;;;3.03;67.84;95295.77;1612249;87;21599;-50
2022/12/01 04:44:53;;;;;;;21.37;14.33;;;;;;;3.14;68.06;95300.66;1662874;85;21025;-49
2022/12/01 04:47:20;;;;;;;18.23;10.55;;;;;;;3.19;67.94;95298.91;1758241;80;21152;-48
2022/12/01 04:49:46;;;;;;;18.77;12.33;;;;;;;3.20;67.70;95295.63;1790522;78;21431;-49
2022/12/01 04:52:13;;;;;;;20.85;10.10;;;;;;;3.16;67.79;95294.81;1806691;78;21089;-49
2022/12/01 04:54:40;;;;;;;14.83;8.63;;;;;;;3.18;67.80;95301.43;1793737;78;20952;-48
2022/12/01 08:22:30;;;;;;;22.32;13.15;;;;;;;1.78;72.80;95281.11;1820306;77;26216;-46
2022/12/01 08:24:56;;;;;;;19.42;12.47;;;;;;;1.73;72.62;95276.80;1813182;78;20998;-49
2022/12/01 08:27:23;;;;;;;23.73;15.53;;;;;;;1.77;72.87;95283.02;1782253;78;21143;-48
2022/12/01 08:29:50;;;;;;;22.65;14.43;;;;;;;1.85;72.94;95279.78;1773172;79;21251;-47
2022/12/01 08:32:17;;;;;;;20.00;13.03;;;;;;;1.86;72.49;95276.70;1785868;78;21025;-46
2022/12/01 08:34:50;;;;;;;37.80;18.10;;;;;;;1.85;72.57;95278.42;1781944;78;21482;-52
2022/12/01 08:37:27;;;;;;;10.58;8.15;;;;;;;1.92;72.52;95275.77;1717974;80;21234;-47
2022/12/01 08:39:55;;;;;;;14.73;8.90;;;;;;;1.94;72.34;95274.22;1718200;80;21243;-49
2022/12/01 08:42:25;;;;;;;19.32;10.45;;;;;;;2.02;72.07;95281.25;1721650;80;21337;-48
2022/12/01 08:44:52;;;;;;;16.95;10.45;;;;;;;2.05;71.62;95277.77;1701301;82;21744;-49
2022/12/01 08:47:20;;;;;;;24.47;11.50;;;;;;;2.10;71.72;95280.71;1699358;82;21112;-49
2022/12/01 08:49:48;;;;;;;68.33;26.02;;;;;;;2.14;71.64;95281.50;1715237;80;21193;-51
2022/12/01 08:52:15;;;;;;;11.40;8.40;;;;;;;2.18;71.33;95278.98;1708257;80;21167;-50
2022/12/01 08:54:42;;;;;;;139.92;44.40;;;;;;;2.23;71.10;95273.78;1736774;81;21607;-50
2022/12/01 08:57:10;;;;;;;39.25;18.98;;;;;;;2.33;71.29;95274.41;1705863;82;21054;-48
2022/12/01 08:59:37;;;;;;;15.48;10.90;;;;;;;2.45;70.71;95275.41;1719425;81;22048;-50
2022/12/01 09:02:05;;;;;;;14.33;9.88;;;;;;;2.52;70.70;95274.10;1709403;82;21225;-49
2022/12/01 09:04:32;;;;;;;12.20;8.93;;;;;;;2.62;70.31;95278.77;1697322;82;21629;-49
2022/12/01 09:07:00;;;;;;;14.90;9.60;;;;;;;2.71;69.88;95268.34;1703865;82;21631;-50
2022/12/01 09:09:28;;;;;;;22.62;14.40;;;;;;;2.80;69.58;95266.81;1720599;80;21065;-47
2022/12/01 09:11:55;;;;;;;19.37;12.93;;;;;;;2.84;69.59;95262.16;1718813;80;21080;-48
2022/12/01 09:14:24;;;;;;;13.80;9.03;;;;;;;2.87;69.85;95266.05;1727200;80;21103;-48
2022/12/01 09:16:50;;;;;;;8.63;7.72;;;;;;;2.86;70.05;95261.78;1720645;80;21351;-50
2022/12/01 09:19:18;;;;;;;13.00;8.53;;;;;;;2.87;69.95;95265.45;1723937;80;21735;-51
2022/12/01 09:21:46;;;;;;;17.90;10.75;;;;;;;2.87;70.14;95256.55;1709148;81;21057;-49
2022/12/01 09:24:15;;;;;;;12.95;9.75;;;;;;;2.93;69.93;95252.27;1711276;81;21573;-48
2022/12/01 09:26:42;;;;;;;12.15;9.53;;;;;;;2.95;69.62;95253.45;1731020;80;21108;-49
2022/12/01 09:29:12;;;;;;;14.28;9.38;;;;;;;3.02;69.56;95251.34;1768435;78;21715;-51
2022/12/01 09:31:39;;;;;;;11.88;8.25;;;;;;;3.05;69.63;95245.12;1768809;79;21163;-49
2022/12/01 09:34:11;;;;;;;13.30;7.97;;;;;;;3.16;69.69;95245.89;1753521;80;21617;-50
2022/12/01 09:36:39;;;;;;;7.42;6.72;;;;;;;3.23;69.47;95245.91;1719882;82;21085;-47
2022/12/01 09:39:07;;;;;;;8.70;7.90;;;;;;;3.22;69.30;95243.00;1781873;79;21076;-48
2022/12/01 09:41:44;;;;;;;10.48;7.20;;;;;;;3.23;69.42;95241.83;1776917;78;21378;-50
2022/12/01 09:44:19;;;;;;;11.25;8.30;;;;;;;3.28;69.00;95248.23;1781578;79;22197;-48
2022/12/01 09:47:13;;;;;;;8.40;7.58;;;;;;;3.24;68.25;95242.78;1773226;78;21033;-46
2022/12/01 09:50:03;;;;;;;13.53;7.90;;;;;;;3.22;67.82;95234.25;1705808;81;21139;-49
2022/12/01 09:52:44;;;;;;;10.78;8.93;;;;;;;3.27;67.96;95234.45;1692216;83;21179;-48
2022/12/01 09:55:13;;;;;;;18.82;12.18;;;;;;;3.34;68.40;95227.64;1697135;82;21156;-51
2022/12/01 10:08:23;;;;;;;15.18;10.90;;;;;;;3.73;67.43;95223.12;1812873;77;26321;-44
2022/12/01 10:13:37;;;;;;;17.52;12.23;;;;;;;3.72;67.51;95217.48;1818465;77;26139;-45
2022/12/01 10:16:09;;;;;;;15.60;11.78;;;;;;;3.67;67.37;95223.34;1728701;80;21119;-47
2022/12/01 10:19:08;;;;;;;23.85;14.25;;;;;;;3.68;67.22;95214.60;1691348;82;21350;-45
2022/12/01 10:22:00;;;;;;;16.17;12.78;;;;;;;3.61;67.17;95211.30;1686325;81;21200;-47
2022/12/01 10:24:56;;;;;;;24.43;14.05;;;;;;;3.57;67.56;95212.47;1646826;84;21152;-46
2022/12/01 10:27:44;;;;;;;37.03;19.00;;;;;;;3.50;67.65;95210.53;1634777;85;21143;-44
2022/12/01 10:30:18;;;;;;;36.15;20.37;;;;;;;3.41;66.57;95208.02;1607588;86;21876;-46
2022/12/01 10:33:07;;;;;;;22.27;13.72;;;;;;;3.35;66.96;95202.79;1610278;86;21170;-47
2022/12/01 10:35:39;;;;;;;23.52;13.13;;;;;;;3.38;67.43;95204.73;1593403;87;21186;-45
2022/12/01 10:38:38;;;;;;;27.10;16.95;;;;;;;3.52;66.93;95208.20;1580680;87;21125;-46
2022/12/01 10:41:16;;;;;;;24.72;15.98;;;;;;;3.63;66.71;95202.73;1580576;87;21277;-45
2022/12/01 10:43:48;;;;;;;23.85;14.50;;;;;;;3.64;66.07;95207.80;1561589;90;21221;-47
2022/12/01 10:46:31;;;;;;;22.80;12.35;;;;;;;3.60;65.89;95199.44;1575120;88;21197;-46
2022/12/01 10:49:01;;;;;;;21.55;12.18;;;;;;;3.63;65.82;95196.73;1555890;89;21139;-45
2022/12/01 10:51:28;;;;;;;11.25;9.13;;;;;;;3.66;65.56;95199.26;1577014;88;21646;-46
2022/12/01 10:54:01;;;;;;;13.40;9.73;;;;;;;3.63;65.21;95200.02;1588032;87;21117;-46
2022/12/01 10:56:28;;;;;;;25.05;12.15;;;;;;;3.53;65.14;95196.15;1575175;89;21127;-47
2022/12/01 10:58:57;;;;;;;11.65;8.53;;;;;;;3.46;65.40;95205.50;1565111;88;21180;-46
2022/12/01 11:01:30;;;;;;;17.20;9.28;;;;;;;3.44;65.61;95198.31;1603153;86;21140;-45
2022/12/01 11:04:07;;;;;;;10.03;8.23;;;;;;;3.52;65.51;95198.67;1652229;86;21159;-45
2022/12/01 11:06:34;;;;;;;10.30;8.60;;;;;;;3.47;65.06;95186.66;1657222;84;21621;-46
2022/12/01 11:09:05;;;;;;;13.05;8.53;;;;;;;3.45;65.60;95187.62;1648519;84;21102;-47
2022/12/01 11:11:39;;;;;;;12.85;10.28;;;;;;;3.52;65.45;95184.31;1661635;84;21229;-47
2022/12/01 11:14:21;;;;;;;19.20;13.15;;;;;;;3.57;65.66;95187.99;1623041;83;21235;-47
2022/12/01 11:16:51;;;;;;;;;;;;;;;3.65;65.60;95182.15;1674615;84;21323;-47
2022/12/01 11:19:32;;;;;;;27.17;16.05;;;;;;;3.67;65.48;95183.89;1647125;84;20136;-46
2022/12/01 11:22:02;;;;;;;12.93;10.95;;;;;;;3.62;65.68;95179.42;1612086;85;21110;-51
2022/12/01 11:24:42;;;;;;;19.10;13.45;;;;;;;3.60;65.84;95176.32;1653233;85;21177;-47
2022/12/01 11:27:23;;;;;;;20.80;12.58;;;;;;;3.65;65.73;95176.70;1618087;86;21077;-46
2022/12/01 11:30:06;;;;;;;14.33;11.22;;;;;;;3.74;66.09;95168.92;1640062;86;21024;-45
2022/12/01 11:32:36;;;;;;;15.40;10.20;;;;;;;3.92;66.06;95162.05;1599088;86;21258;-46
2022/12/01 11:35:17;;;;;;;14.28;9.78;;;;;;;3.95;65.75;95165.34;1602302;87;21066;-47
2022/12/01 11:37:56;;;;;;;19.85;12.88;;;;;;;4.04;65.54;95159.66;1625502;87;21758;-44
2022/12/01 11:40:25;;;;;;;17.17;12.90;;;;;;;4.12;65.00;95162.56;1623044;86;21138;-46
2022/12/01 11:42:56;;;;;;;15.63;10.98;;;;;;;4.07;65.23;95166.27;1623277;86;21157;-49
2022/12/01 11:45:38;;;;;;;15.85;12.13;;;;;;;4.04;65.21;95155.58;1627036;87;21632;-45
2022/12/01 11:48:26;;;;;;;15.80;11.85;;;;;;;4.01;65.23;95155.59;1660294;84;21049;-48
2022/12/01 11:51:13;;;;;;;17.75;11.80;;;;;;;4.03;65.11;95156.75;1652636;84;22119;-46
2022/12/01 11:53:42;;;;;;;14.07;10.28;;;;;;;3.98;65.39;95154.45;1607509;86;21125;-46
2022/12/01 11:56:22;;;;;;;16.52;10.72;;;;;;;3.95;65.46;95148.44;1559320;89;21102;-47
2022/12/01 11:58:54;;;;;;;13.72;9.13;;;;;;;3.93;65.47;95146.70;1596873;88;21172;-47
2022/12/01 12:01:51;;;;;;;10.00;8.53;;;;;;;3.95;65.48;95154.45;1556485;90;21088;-47
2022/12/01 12:04:50;;;;;;;10.72;8.75;;;;;;;4.05;65.65;95153.05;1538722;91;21485;-47
2022/12/01 12:07:42;;;;;;;23.45;15.25;;;;;;;4.10;65.36;95156.75;1552185;88;21115;-49
2022/12/01 12:10:23;;;;;;;23.80;12.43;;;;;;;4.10;64.74;95160.83;1572277;89;21226;-48
2022/12/01 12:13:05;;;;;;;31.25;16.95;;;;;;;3.94;64.65;95159.14;1588801;90;21075;-47
2022/12/01 12:15:56;;;;;;;27.50;16.05;;;;;;;3.90;64.73;95162.44;1582022;88;21285;-47
2022/12/01 12:18:51;;;;;;;18.42;11.85;;;;;;;3.83;64.59;95158.39;1601283;88;22670;-49
2022/12/01 12:21:32;;;;;;;13.72;10.25;;;;;;;3.79;64.88;95163.07;1583109;88;21211;-48
2022/12/01 12:24:13;;;;;;;12.80;9.98;;;;;;;3.72;64.71;95164.44;1604085;88;21114;-48
2022/12/01 12:27:01;;;;;;;14.80;8.90;;;;;;;3.66;64.85;95160.58;1586272;88;21042;-47
2022/12/01 12:29:55;;;;;;;15.78;12.15;;;;;;;3.72;64.86;95163.08;1597459;87;21655;-50
2022/12/01 12:32:28;;;;;;;21.68;10.53;;;;;;;3.69;64.97;95152.98;1592505;88;21206;-47
2022/12/01 12:35:28;;;;;;;20.97;10.70;;;;;;;3.64;64.88;95158.05;1602441;88;21132;-47
2022/12/01 12:38:20;;;;;;;17.48;11.90;;;;;;;3.57;65.06;95162.16;1611048;88;21946;-46
2022/12/01 12:41:01;;;;;;;21.10;13.30;;;;;;;3.53;65.31;95162.75;1600767;88;21331;-46
2022/12/01 12:43:50;;;;;;;35.65;18.17;;;;;;;3.55;65.77;95157.09;1593603;88;21086;-47
2022/12/01 12:46:36;;;;;;;17.02;10.55;;;;;;;3.68;66.03;95159.59;1610474;87;21339;-49
2022/12/01 12:49:34;;;;;;;15.03;10.70;;;;;;;3.80;65.89;95160.54;1540909;90;21203;-46
2022/12/01 12:52:12;;;;;;;10.38;8.90;;;;;;;3.84;65.76;95156.45;1578037;86;21107;-47
2022/12/01 12:54:52;;;;;;;13.40;10.35;;;;;;;3.78;65.83;95147.91;1615429;87;21448;-46
2022/12/01 12:57:34;;;;;;;12.78;9.63;;;;;;;3.71;65.91;95152.00;1624315;86;21115;-51
2022/12/01 13:00:15;;;;;;;18.65;9.73;;;;;;;3.64;66.20;95157.47;1604986;88;21175;-44
2022/12/01 13:03:10;;;;;;;28.40;12.88;;;;;;;3.60;66.40;95164.08;1594174;88;21132;-48
2022/12/01 13:05:57;;;;;;;13.62;10.90;;;;;;;3.59;66.78;95167.97;1598210;88;21181;-46
2022/12/01 13:08:49;;;;;;;13.75;10.80;;;;;;;3.71;66.73;95161.52;1595535;87;21167;-47
2022/12/01 13:11:39;;;;;;;34.25;17.90;;;;;;;3.84;66.53;95157.22;1606512;87;21191;-47
2022/12/01 13:14:18;;;;;;;19.27;14.38;;;;;;;3.94;66.28;95161.07;1589740;87;21298;-46
2022/12/01 13:16:47;;;;;;;23.38;15.18;;;;;;;4.03;66.18;95152.67;1567063;89;21297;-46
2022/12/01 13:19:27;;;;;;;21.65;13.83;;;;;;;4.04;65.92;95156.94;1592560;87;21596;-46
2022/12/01 13:21:54;;;;;;;29.10;18.98;;;;;;;3.98;65.86;95149.58;1615615;87;21208;-52
2022/12/01 13:24:25;;;;;;;36.40;22.70;;;;;;;3.90;66.05;95150.19;1608011;87;21134;-48
2022/12/01 13:26:56;;;;;;;35.78;23.35;;;;;;;3.87;66.23;95159.14;1614704;86;21106;-47
2022/12/01 13:29:24;;;;;;;41.95;23.32;;;;;;;3.81;66.33;95156.65;1520536;92;21163;-47
2022/12/01 13:31:52;;;;;;;34.13;20.82;;;;;;;3.76;66.56;95163.86;1511082;92;21581;-48
2022/12/01 13:34:43;;;;;;;22.55;14.47;;;;;;;3.66;66.59;95164.66;1512039;93;21139;-49
2022/12/01 13:37:10;;;;;;;20.52;15.20;;;;;;;3.57;66.55;95165.66;1489652;94;21197;-47
2022/12/01 13:39:38;;;;;;;22.93;15.15;;;;;;;3.48;66.78;95171.31;1471964;94;21486;-46
2022/12/01 13:42:20;;;;;;;57.10;36.68;;;;;;;3.51;67.12;95174.61;1496898;94;21247;-48
2022/12/01 13:44:57;;;;;;;49.83;30.48;;;;;;;3.47;67.03;95169.77;1458621;96;21181;-48
2022/12/01 13:47:36;;;;;;;39.35;23.77;;;;;;;3.50;67.36;95168.37;1483912;95;21116;-46
2022/12/01 13:50:42;;;;;;;51.00;30.72;;;;;;;3.59;67.11;95161.96;1471155;95;21269;-44
2022/12/01 13:53:31;;;;;;;48.52;26.42;;;;;;;3.54;67.08;95162.34;1443926;97;21237;-46
2022/12/01 13:56:18;;;;;;;36.30;17.98;;;;;;;3.51;67.47;95155.57;1454153;96;21675;-46
2022/12/01 13:58:50;;;;;;;22.60;16.10;;;;;;;3.63;67.64;95161.36;1468934;96;21134;-48
2022/12/01 18:02:14;;;;;;;86.28;43.90;;;;;;;1.64;78.25;95152.77;1833433;77;26237;-47
2022/12/01 18:04:41;;;;;;;62.73;35.10;;;;;;;1.63;78.28;95156.08;1758485;80;21092;-46
2022/12/01 18:07:08;;;;;;;67.87;37.63;;;;;;;1.66;78.48;95150.48;1791379;78;21146;-48
2022/12/01 18:09:35;;;;;;;75.65;41.75;;;;;;;1.71;78.70;95145.45;1793987;78;21054;-48
2022/12/01 18:12:03;;;;;;;80.12;42.23;;;;;;;1.82;78.97;95149.79;1793945;78;21073;-46
2022/12/01 18:14:33;;;;;;;106.80;51.48;;;;;;;1.92;78.83;95150.98;1807400;78;21299;-48
2022/12/01 18:17:00;;;;;;;107.07;52.35;;;;;;;1.96;78.62;95146.34;1807152;78;21045;-47
2022/12/01 18:19:27;;;;;;;78.85;42.27;;;;;;;1.98;78.74;95153.52;1769009;78;21780;-47
2022/12/01 18:21:55;;;;;;;84.90;45.35;;;;;;;2.04;78.57;95150.62;1786280;78;20977;-47
2022/12/01 18:24:22;;;;;;;78.12;41.25;;;;;;;2.06;78.69;95145.59;1728900;80;21024;-47
2022/12/01 18:26:48;;;;;;;85.70;43.75;;;;;;;2.12;78.49;95149.50;1773158;80;21563;-47
2022/12/01 18:29:24;;;;;;;91.22;47.98;;;;;;;2.13;78.38;95154.53;1772034;80;20978;-48
2022/12/01 18:31:46;;;;;;;90.50;48.02;;;;;;;2.14;78.22;95149.89;1752942;80;21247;-47
2022/12/01 18:34:13;;;;;;;95.75;48.52;;;;;;;2.12;78.18;95149.50;1753287;80;21018;-48
2022/12/01 18:36:40;;;;;;;78.42;43.28;;;;;;;2.13;78.36;95146.98;1761437;80;21081;-47
2022/12/01 18:39:07;;;;;;;88.65;45.88;;;;;;;2.20;78.27;95151.06;1748275;81;21224;-49
2022/12/01 18:41:36;;;;;;;91.90;45.23;;;;;;;2.22;78.20;95151.45;1753094;80;21014;-48
2022/12/01 18:44:03;;;;;;;89.37;45.98;;;;;;;2.27;78.13;95155.14;1750165;81;21253;-47
2022/12/01 18:46:30;;;;;;;74.45;40.80;;;;;;;2.28;78.12;95162.12;1776515;80;21017;-48
2022/12/01 18:49:01;;;;;;;78.57;42.53;;;;;;;2.32;78.05;95152.07;1770735;79;20997;-47
2022/12/01 18:51:30;;;;;;;88.50;48.35;;;;;;;2.37;78.07;95157.11;1780475;79;20954;-47
2022/12/01 18:53:58;;;;;;;93.05;47.73;;;;;;;2.36;77.88;95158.28;1788093;79;21579;-47
2022/12/01 18:56:25;;;;;;;89.05;44.38;;;;;;;2.34;77.88;95167.39;1786061;79;21065;-46
2022/12/01 18:58:56;;;;;;;59.63;32.17;;;;;;;2.33;77.99;95163.13;1795088;79;20955;-47
2022/12/01 19:01:29;;;;;;;72.08;38.85;;;;;;;2.38;77.95;95158.67;1651760;86;21010;-48
2022/12/01 19:03:57;;;;;;;71.53;36.88;;;;;;;2.40;77.54;95158.48;1597546;89;21603;-47
2022/12/01 19:06:25;;;;;;;72.82;35.45;;;;;;;2.37;77.59;95155.76;1597396;89;21553;-47
2022/12/01 19:08:52;;;;;;;72.40;36.60;;;;;;;2.39;77.60;95160.22;1598708;89;21324;-47
2022/12/01 19:11:19;;;;;;;64.45;34.00;;;;;;;2.38;77.50;95155.39;1567085;89;21008;-47
2022/12/01 19:13:46;;;;;;;69.05;36.38;;;;;;;2.41;77.82;95156.53;1604809;88;21058;-47
2022/12/01 19:16:16;;;;;;;62.75;33.05;;;;;;;2.50;77.70;95158.31;1595367;89;21051;-47
2022/12/01 19:18:44;;;;;;;48.48;28.60;;;;;;;2.54;77.28;95155.02;1596036;89;21142;-47
2022/12/01 19:21:14;;;;;;;61.50;35.28;;;;;;;2.57;77.26;95152.88;1597253;88;21188;-48
2022/12/01 19:23:40;;;;;;;54.48;30.17;;;;;;;2.61;77.14;95148.23;1594144;89;21635;-47
2022/12/01 19:26:11;;;;;;;44.38;27.30;;;;;;;2.62;76.99;95149.77;1592833;88;21077;-47
2022/12/01 19:28:44;;;;;;;45.98;27.15;;;;;;;2.63;77.05;95145.89;1598977;88;21075;-48
2022/12/01 19:31:15;;;;;;;57.98;31.90;;;;;;;2.59;77.03;95154.63;1600678;87;21702;-47
2022/12/01 19:33:42;;;;;;;62.83;32.20;;;;;;;2.54;77.27;95149.59;1594971;89;21895;-48
2022/12/01 19:36:12;;;;;;;59.15;32.63;;;;;;;2.56;77.54;95159.48;1591233;89;21692;-47
2022/12/01 19:38:40;;;;;;;49.80;29.15;;;;;;;2.61;77.44;95152.30;1582192;89;21006;-48
2022/12/01 19:41:07;;;;;;;47.73;28.67;;;;;;;2.64;77.57;95149.59;1602054;88;21897;-47
2022/12/01 19:43:34;;;;;;;46.45;26.80;;;;;;;2.69;77.42;95140.30;1593075;89;21142;-48
2022/12/01 19:46:13;;;;;;;54.27;30.75;;;;;;;2.68;77.42;95150.37;1598994;88;21275;-46
2022/12/01 19:48:40;;;;;;;56.50;32.55;;;;;;;2.66;77.37;95146.50;1594526;89;21556;-48
2022/12/01 19:51:08;;;;;;;58.98;32.88;;;;;;;2.67;77.63;95144.74;1587467;89;21087;-48
2022/12/01 19:53:34;;;;;;;55.75;31.77;;;;;;;2.80;77.97;95145.13;1597719;88;21044;-48
2022/12/01 19:56:02;;;;;;;46.80;27.95;;;;;;;2.93;77.80;95136.80;1596896;89;21073;-47
2022/12/01 19:58:32;;;;;;;52.60;31.10;;;;;;;3.01;77.27;95140.48;1655250;84;21920;-47
2022/12/01 20:01:08;;;;;;;55.35;32.23;;;;;;;3.00;76.87;95136.22;1761191;78;20993;-47
2022/12/01 20:03:36;;;;;;;50.78;31.37;;;;;;;3.00;76.97;95136.78;1678741;84;20984;-48
2022/12/01 20:06:06;;;;;;;56.25;32.70;;;;;;;3.00;76.82;95134.06;1700301;83;20988;-47
2022/12/01 20:08:33;;;;;;;54.30;32.83;;;;;;;3.04;76.92;95132.91;1686624;83;21084;-49
2022/12/01 20:11:02;;;;;;;55.80;32.10;;;;;;;3.11;76.69;95129.41;1697542;83;21112;-47
2022/12/01 20:13:34;;;;;;;52.78;32.42;;;;;;;3.08;76.41;95133.67;1697427;83;21063;-47
2022/12/01 20:16:10;;;;;;;65.03;34.98;;;;;;;3.01;76.51;95131.54;1683720;83;21054;-47
2022/12/01 20:18:38;;;;;;;54.83;31.90;;;;;;;2.93;76.73;95129.44;1661424;85;21631;-47
2022/12/01 20:21:15;;;;;;;56.55;33.20;;;;;;;2.94;76.75;95124.77;1687738;84;21574;-47
2022/12/01 20:23:40;;;;;;;51.45;30.40;;;;;;;2.92;76.87;95129.25;1691653;83;21259;-46
2022/12/01 20:26:07;;;;;;;40.65;27.35;;;;;;;2.90;76.93;95117.97;1697632;84;21153;-46
2022/12/01 20:28:35;;;;;;;77.27;37.48;;;;;;;2.91;76.94;95118.16;1697114;84;21553;-48
2022/12/01 20:31:03;;;;;;;44.75;26.35;;;;;;;2.86;76.85;95123.98;1697185;84;21042;-49
2022/12/01 20:33:30;;;;;;;40.67;24.98;;;;;;;2.85;77.30;95125.75;1690029;83;21659;-47
2022/12/01 20:35:56;;;;;;;37.20;23.73;;;;;;;2.86;77.18;95124.58;1669181;83;21243;-47
2022/12/01 20:38:23;;;;;;;34.27;22.90;;;;;;;2.80;77.30;95124.76;1694141;83;21060;-48
2022/12/01 20:40:51;;;;;;;34.78;21.95;;;;;;;2.75;77.38;95120.52;1742834;79;20954;-47
2022/12/01 20:43:18;;;;;;;34.60;23.18;;;;;;;2.71;77.55;95125.74;1789676;79;21054;-47
2022/12/01 20:45:45;;;;;;;36.75;25.35;;;;;;;2.76;78.25;95121.27;1803489;78;20995;-47
2022/12/01 20:48:12;;;;;;;38.48;25.15;;;;;;;2.86;78.15;95109.64;1778226;79;21263;-47
2022/12/01 20:50:39;;;;;;;44.98;28.45;;;;;;;2.95;78.07;95115.45;1788680;79;20952;-46
2022/12/01 20:53:05;;;;;;;37.35;26.17;;;;;;;2.99;77.88;95110.78;1799237;79;21053;-47
2022/12/01 20:55:35;;;;;;;50.73;31.10;;;;;;;3.05;77.89;95115.44;1787992;79;21014;-47
2022/12/01 20:58:04;;;;;;;46.95;28.83;;;;;;;3.10;77.87;95113.70;1794745;78;21727;-47
2022/12/01 21:00:31;;;;;;;57.88;31.82;;;;;;;3.17;77.33;95115.61;1802958;78;21243;-47
2022/12/01 21:02:58;;;;;;;60.10;34.05;;;;;;;3.15;77.40;95116.59;1799450;78;20957;-47
2022/12/01 21:05:25;;;;;;;60.35;32.15;;;;;;;3.19;77.11;95124.14;1773840;79;20993;-48
2022/12/01 21:07:53;;;;;;;52.98;30.82;;;;;;;3.23;77.05;95118.14;1765949;79;21067;-47
2022/12/01 21:10:20;;;;;;;81.02;37.00;;;;;;;3.33;77.09;95115.97;1782228;78;21259;-47
2022/12/01 21:15:49;;;;;;;36.15;20.77;;;;;;;3.25;76.04;95119.88;1797797;78;20989;-47
2022/12/01 21:18:23;;;;;;;31.60;20.68;;;;;;;3.11;76.21;95122.62;1693497;83;21081;-47
2022/12/01 21:20:55;;;;;;;29.40;20.43;;;;;;;2.97;76.30;95119.34;1707697;82;20998;-47
2022/12/01 21:23:22;;;;;;;35.23;22.20;;;;;;;2.91;76.91;95117.39;1700321;83;21077;-47
2022/12/01 21:25:50;;;;;;;34.33;22.67;;;;;;;2.90;77.00;95121.28;1697148;83;21121;-47
2022/12/01 21:28:23;;;;;;;31.77;21.60;;;;;;;2.89;77.02;95123.80;1695038;83;21583;-47
2022/12/01 21:30:53;;;;;;;;;;;;;;;2.84;77.10;95121.48;1696389;84;21082;-47
2022/12/01 21:33:30;;;;;;;34.65;21.33;;;;;;;2.76;77.27;95119.34;1613331;88;20479;-47
2022/12/01 21:35:59;;;;;;;32.83;20.80;;;;;;;2.71;77.77;95112.16;1615459;88;21010;-47
2022/12/01 21:38:26;;;;;;;33.95;22.45;;;;;;;2.69;77.76;95108.46;1615597;88;21239;-47
2022/12/01 21:40:53;;;;;;;32.98;22.58;;;;;;;2.63;78.00;95106.52;1615402;87;21065;-46
2022/12/01 21:43:23;;;;;;;33.30;21.70;;;;;;;2.66;78.47;95105.77;1615629;87;21029;-47
2022/12/01 21:45:54;;;;;;;42.23;24.47;;;;;;;2.71;78.30;95108.09;1615781;87;21148;-47
2022/12/01 21:48:24;;;;;;;38.83;24.95;;;;;;;2.73;78.57;95105.76;1615694;88;21145;-47